sensor_id;sensor_type;location;lat;lon;timestamp;P1;durP1;ratioP1;P2;durP2;ratioP2
35324;SDS011;35135;47.510;19.036;2022-07-31T00:02:11;2.45;;;2.25;;
35324;SDS011;35135;47.510;19.036;2022-07-31T00:04:43;2.63;;;2.42;;
35324;SDS011;35135;47.510;19.036;2022-07-31T00:07:13;3.80;;;2.30;;
35324;SDS011;35135;47.510;19.036;2022-07-31T00:09:42;2.40;;;2.20;;
35324;SDS011;35135;47.510;19.036;2022-07-31T00:12:11;2.78;;;2.22;;
35324;SDS011;35135;47.510;19.036;2022-07-31T00:14:39;2.50;;;2.30;;
35324;SDS011;35135;47.510;19.036;2022-07-31T00:17:08;3.22;;;2.58;;
35324;SDS011;35135;47.510;19.036;2022-07-31T00:19:41;2.65;;;2.40;;
35324;SDS011;35135;47.510;19.036;2022-07-31T00:22:11;2.80;;;2.50;;
35324;SDS011;35135;47.510;19.036;2022-07-31T00:24:38;2.63;;;2.42;;
35324;SDS011;35135;47.510;19.036;2022-07-31T00:27:07;2.60;;;2.38;;
35324;SDS011;35135;47.510;19.036;2022-07-31T00:29:38;2.97;;;2.55;;
35324;SDS011;35135;47.510;19.036;2022-07-31T00:32:07;3.00;;;2.70;;
35324;SDS011;35135;47.510;19.036;2022-07-31T00:34:36;4.40;;;2.60;;
35324;SDS011;35135;47.510;19.036;2022-07-31T00:37:05;3.20;;;2.90;;
35324;SDS011;35135;47.510;19.036;2022-07-31T00:39:35;4.03;;;2.63;;
35324;SDS011;35135;47.510;19.036;2022-07-31T00:42:15;3.38;;;3.08;;
35324;SDS011;35135;47.510;19.036;2022-07-31T00:44:45;3.30;;;2.40;;
35324;SDS011;35135;47.510;19.036;2022-07-31T00:47:20;2.97;;;2.65;;
35324;SDS011;35135;47.510;19.036;2022-07-31T00:49:50;2.97;;;2.63;;
35324;SDS011;35135;47.510;19.036;2022-07-31T00:52:19;3.20;;;2.75;;
35324;SDS011;35135;47.510;19.036;2022-07-31T00:54:55;3.17;;;2.65;;
35324;SDS011;35135;47.510;19.036;2022-07-31T00:57:23;2.85;;;2.65;;
35324;SDS011;35135;47.510;19.036;2022-07-31T00:59:53;2.88;;;2.67;;
35324;SDS011;35135;47.510;19.036;2022-07-31T01:02:22;3.40;;;3.10;;
35324;SDS011;35135;47.510;19.036;2022-07-31T01:04:50;3.10;;;2.90;;
35324;SDS011;35135;47.510;19.036;2022-07-31T01:07:18;3.03;;;2.72;;
35324;SDS011;35135;47.510;19.036;2022-07-31T01:09:48;3.20;;;2.90;;
35324;SDS011;35135;47.510;19.036;2022-07-31T01:15:24;4.00;;;2.78;;
35324;SDS011;35135;47.510;19.036;2022-07-31T01:17:54;2.80;;;2.60;;
35324;SDS011;35135;47.510;19.036;2022-07-31T01:20:24;3.22;;;2.92;;
35324;SDS011;35135;47.510;19.036;2022-07-31T01:23:55;2.97;;;2.45;;
35324;SDS011;35135;47.510;19.036;2022-07-31T01:32:05;2.92;;;2.55;;
35324;SDS011;35135;47.510;19.036;2022-07-31T01:34:47;3.63;;;2.65;;
35324;SDS011;35135;47.510;19.036;2022-07-31T01:37:33;2.50;;;2.30;;
35324;SDS011;35135;47.510;19.036;2022-07-31T01:40:09;2.30;;;2.10;;
35324;SDS011;35135;47.510;19.036;2022-07-31T01:42:55;2.33;;;2.00;;
35324;SDS011;35135;47.510;19.036;2022-07-31T01:45:29;2.42;;;2.22;;
35324;SDS011;35135;47.510;19.036;2022-07-31T01:47:58;2.65;;;2.00;;
35324;SDS011;35135;47.510;19.036;2022-07-31T01:50:28;2.08;;;1.88;;
35324;SDS011;35135;47.510;19.036;2022-07-31T01:52:57;2.13;;;1.60;;
35324;SDS011;35135;47.510;19.036;2022-07-31T01:55:26;2.38;;;1.73;;
35324;SDS011;35135;47.510;19.036;2022-07-31T01:58:00;1.80;;;1.70;;
35324;SDS011;35135;47.510;19.036;2022-07-31T02:00:33;1.67;;;1.58;;
35324;SDS011;35135;47.510;19.036;2022-07-31T02:03:02;2.78;;;1.77;;
35324;SDS011;35135;47.510;19.036;2022-07-31T02:05:34;2.33;;;1.70;;
35324;SDS011;35135;47.510;19.036;2022-07-31T02:08:07;1.77;;;1.60;;
35324;SDS011;35135;47.510;19.036;2022-07-31T02:10:36;1.45;;;1.35;;
35324;SDS011;35135;47.510;19.036;2022-07-31T02:13:05;2.25;;;1.58;;
35324;SDS011;35135;47.510;19.036;2022-07-31T02:18:06;1.50;;;1.40;;
35324;SDS011;35135;47.510;19.036;2022-07-31T02:20:37;1.48;;;1.33;;
35324;SDS011;35135;47.510;19.036;2022-07-31T02:23:06;1.30;;;1.20;;
35324;SDS011;35135;47.510;19.036;2022-07-31T02:25:36;1.40;;;1.20;;
35324;SDS011;35135;47.510;19.036;2022-07-31T02:28:10;1.98;;;1.10;;
35324;SDS011;35135;47.510;19.036;2022-07-31T02:30:41;1.27;;;1.10;;
35324;SDS011;35135;47.510;19.036;2022-07-31T02:33:21;2.42;;;1.20;;
35324;SDS011;35135;47.510;19.036;2022-07-31T02:35:52;2.13;;;1.50;;
35324;SDS011;35135;47.510;19.036;2022-07-31T02:38:24;2.40;;;1.20;;
35324;SDS011;35135;47.510;19.036;2022-07-31T02:40:57;1.23;;;1.13;;
35324;SDS011;35135;47.510;19.036;2022-07-31T02:43:29;1.65;;;1.13;;
35324;SDS011;35135;47.510;19.036;2022-07-31T02:45:57;1.30;;;1.20;;
35324;SDS011;35135;47.510;19.036;2022-07-31T02:48:25;1.38;;;1.20;;
35324;SDS011;35135;47.510;19.036;2022-07-31T02:50:54;1.27;;;1.10;;
35324;SDS011;35135;47.510;19.036;2022-07-31T02:53:25;2.22;;;1.30;;
35324;SDS011;35135;47.510;19.036;2022-07-31T02:55:53;1.10;;;1.00;;
35324;SDS011;35135;47.510;19.036;2022-07-31T02:58:22;1.10;;;1.00;;
35324;SDS011;35135;47.510;19.036;2022-07-31T03:01:00;1.58;;;1.42;;
35324;SDS011;35135;47.510;19.036;2022-07-31T03:03:31;2.33;;;1.02;;
35324;SDS011;35135;47.510;19.036;2022-07-31T03:06:00;1.30;;;1.20;;
35324;SDS011;35135;47.510;19.036;2022-07-31T03:08:29;1.15;;;0.90;;
35324;SDS011;35135;47.510;19.036;2022-07-31T03:10:59;1.70;;;1.30;;
35324;SDS011;35135;47.510;19.036;2022-07-31T03:13:28;2.05;;;1.30;;
35324;SDS011;35135;47.510;19.036;2022-07-31T03:15:57;2.08;;;1.20;;
35324;SDS011;35135;47.510;19.036;2022-07-31T03:18:27;4.35;;;1.13;;
35324;SDS011;35135;47.510;19.036;2022-07-31T03:23:26;1.58;;;1.10;;
35324;SDS011;35135;47.510;19.036;2022-07-31T03:26:09;1.35;;;1.23;;
35324;SDS011;35135;47.510;19.036;2022-07-31T03:28:38;1.50;;;1.40;;
35324;SDS011;35135;47.510;19.036;2022-07-31T03:31:11;2.55;;;1.58;;
35324;SDS011;35135;47.510;19.036;2022-07-31T03:33:50;1.33;;;1.23;;
35324;SDS011;35135;47.510;19.036;2022-07-31T03:36:21;1.83;;;1.30;;
35324;SDS011;35135;47.510;19.036;2022-07-31T03:38:49;3.00;;;1.27;;
35324;SDS011;35135;47.510;19.036;2022-07-31T03:41:18;2.75;;;1.50;;
35324;SDS011;35135;47.510;19.036;2022-07-31T03:43:47;2.05;;;1.40;;
35324;SDS011;35135;47.510;19.036;2022-07-31T03:46:17;2.00;;;1.42;;
35324;SDS011;35135;47.510;19.036;2022-07-31T03:48:52;2.22;;;1.80;;
35324;SDS011;35135;47.510;19.036;2022-07-31T03:51:22;1.90;;;1.20;;
35324;SDS011;35135;47.510;19.036;2022-07-31T03:53:50;2.63;;;1.70;;
35324;SDS011;35135;47.510;19.036;2022-07-31T03:56:19;2.05;;;1.38;;
35324;SDS011;35135;47.510;19.036;2022-07-31T03:58:48;1.52;;;1.25;;
35324;SDS011;35135;47.510;19.036;2022-07-31T04:01:17;2.80;;;1.60;;
35324;SDS011;35135;47.510;19.036;2022-07-31T04:03:47;1.80;;;1.45;;
35324;SDS011;35135;47.510;19.036;2022-07-31T04:06:22;4.22;;;1.58;;
35324;SDS011;35135;47.510;19.036;2022-07-31T04:08:48;1.58;;;1.48;;
35324;SDS011;35135;47.510;19.036;2022-07-31T04:11:20;2.45;;;1.60;;
35324;SDS011;35135;47.510;19.036;2022-07-31T04:13:53;1.55;;;1.40;;
35324;SDS011;35135;47.510;19.036;2022-07-31T04:16:22;1.63;;;1.38;;
35324;SDS011;35135;47.510;19.036;2022-07-31T04:18:52;2.58;;;1.55;;
35324;SDS011;35135;47.510;19.036;2022-07-31T04:21:21;2.00;;;1.80;;
35324;SDS011;35135;47.510;19.036;2022-07-31T04:24:00;2.00;;;1.50;;
35324;SDS011;35135;47.510;19.036;2022-07-31T04:26:32;1.80;;;1.65;;
35324;SDS011;35135;47.510;19.036;2022-07-31T04:29:03;2.28;;;2.03;;
35324;SDS011;35135;47.510;19.036;2022-07-31T04:31:32;1.70;;;1.60;;
35324;SDS011;35135;47.510;19.036;2022-07-31T04:34:04;1.90;;;1.52;;
35324;SDS011;35135;47.510;19.036;2022-07-31T04:36:33;2.20;;;1.80;;
35324;SDS011;35135;47.510;19.036;2022-07-31T04:39:06;2.22;;;1.83;;
35324;SDS011;35135;47.510;19.036;2022-07-31T04:41:34;2.90;;;1.77;;
35324;SDS011;35135;47.510;19.036;2022-07-31T04:44:04;1.80;;;1.60;;
35324;SDS011;35135;47.510;19.036;2022-07-31T04:46:33;2.38;;;1.70;;
35324;SDS011;35135;47.510;19.036;2022-07-31T04:49:08;2.45;;;1.83;;
35324;SDS011;35135;47.510;19.036;2022-07-31T04:51:40;2.07;;;1.60;;
35324;SDS011;35135;47.510;19.036;2022-07-31T04:54:09;1.95;;;1.65;;
35324;SDS011;35135;47.510;19.036;2022-07-31T04:56:38;1.60;;;1.50;;
35324;SDS011;35135;47.510;19.036;2022-07-31T04:59:11;2.13;;;1.67;;
35324;SDS011;35135;47.510;19.036;2022-07-31T05:01:41;1.85;;;1.67;;
35324;SDS011;35135;47.510;19.036;2022-07-31T05:04:11;4.00;;;1.55;;
35324;SDS011;35135;47.510;19.036;2022-07-31T05:06:48;1.58;;;1.40;;
35324;SDS011;35135;47.510;19.036;2022-07-31T05:09:18;1.67;;;1.45;;
35324;SDS011;35135;47.510;19.036;2022-07-31T05:12:06;2.42;;;1.40;;
35324;SDS011;35135;47.510;19.036;2022-07-31T05:14:50;3.33;;;1.67;;
35324;SDS011;35135;47.510;19.036;2022-07-31T05:17:19;2.53;;;1.40;;
35324;SDS011;35135;47.510;19.036;2022-07-31T05:19:46;2.75;;;1.50;;
35324;SDS011;35135;47.510;19.036;2022-07-31T05:22:21;1.52;;;1.42;;
35324;SDS011;35135;47.510;19.036;2022-07-31T05:24:52;1.87;;;1.50;;
35324;SDS011;35135;47.510;19.036;2022-07-31T05:27:21;3.35;;;1.98;;
35324;SDS011;35135;47.510;19.036;2022-07-31T05:29:54;2.03;;;1.45;;
35324;SDS011;35135;47.510;19.036;2022-07-31T05:32:24;2.80;;;1.27;;
35324;SDS011;35135;47.510;19.036;2022-07-31T05:34:53;2.42;;;1.52;;
35324;SDS011;35135;47.510;19.036;2022-07-31T05:37:22;1.92;;;1.60;;
35324;SDS011;35135;47.510;19.036;2022-07-31T05:39:48;2.55;;;1.67;;
35324;SDS011;35135;47.510;19.036;2022-07-31T05:42:17;2.13;;;1.30;;
35324;SDS011;35135;47.510;19.036;2022-07-31T05:44:45;2.13;;;1.60;;
35324;SDS011;35135;47.510;19.036;2022-07-31T05:47:12;1.63;;;1.52;;
35324;SDS011;35135;47.510;19.036;2022-07-31T05:49:45;2.22;;;1.50;;
35324;SDS011;35135;47.510;19.036;2022-07-31T05:52:20;2.25;;;1.50;;
35324;SDS011;35135;47.510;19.036;2022-07-31T05:54:49;3.25;;;1.60;;
35324;SDS011;35135;47.510;19.036;2022-07-31T05:57:15;1.80;;;1.63;;
35324;SDS011;35135;47.510;19.036;2022-07-31T05:59:42;2.03;;;1.52;;
35324;SDS011;35135;47.510;19.036;2022-07-31T06:02:10;2.03;;;1.50;;
35324;SDS011;35135;47.510;19.036;2022-07-31T06:04:38;2.45;;;1.50;;
35324;SDS011;35135;47.510;19.036;2022-07-31T06:07:07;2.92;;;1.63;;
35324;SDS011;35135;47.510;19.036;2022-07-31T06:09:42;2.47;;;1.65;;
35324;SDS011;35135;47.510;19.036;2022-07-31T06:12:12;2.35;;;1.60;;
35324;SDS011;35135;47.510;19.036;2022-07-31T06:14:42;2.47;;;1.80;;
35324;SDS011;35135;47.510;19.036;2022-07-31T06:17:10;2.40;;;1.90;;
35324;SDS011;35135;47.510;19.036;2022-07-31T06:19:40;1.65;;;1.52;;
35324;SDS011;35135;47.510;19.036;2022-07-31T06:22:09;2.22;;;1.70;;
35324;SDS011;35135;47.510;19.036;2022-07-31T06:24:41;2.00;;;1.65;;
35324;SDS011;35135;47.510;19.036;2022-07-31T06:27:09;2.05;;;1.63;;
35324;SDS011;35135;47.510;19.036;2022-07-31T06:29:36;1.67;;;1.55;;
35324;SDS011;35135;47.510;19.036;2022-07-31T06:32:05;3.33;;;1.85;;
35324;SDS011;35135;47.510;19.036;2022-07-31T06:34:35;3.08;;;1.88;;
35324;SDS011;35135;47.510;19.036;2022-07-31T06:37:15;2.05;;;1.75;;
35324;SDS011;35135;47.510;19.036;2022-07-31T06:39:44;1.67;;;1.40;;
35324;SDS011;35135;47.510;19.036;2022-07-31T06:42:18;2.72;;;1.63;;
35324;SDS011;35135;47.510;19.036;2022-07-31T06:44:49;2.30;;;1.80;;
35324;SDS011;35135;47.510;19.036;2022-07-31T06:47:24;1.80;;;1.70;;
35324;SDS011;35135;47.510;19.036;2022-07-31T06:49:52;2.30;;;1.67;;
35324;SDS011;35135;47.510;19.036;2022-07-31T06:52:18;2.15;;;1.70;;
35324;SDS011;35135;47.510;19.036;2022-07-31T06:54:47;2.17;;;1.92;;
35324;SDS011;35135;47.510;19.036;2022-07-31T06:57:16;2.22;;;1.85;;
35324;SDS011;35135;47.510;19.036;2022-07-31T06:59:45;2.08;;;1.55;;
35324;SDS011;35135;47.510;19.036;2022-07-31T07:02:19;2.65;;;1.90;;
35324;SDS011;35135;47.510;19.036;2022-07-31T07:04:52;3.38;;;1.80;;
35324;SDS011;35135;47.510;19.036;2022-07-31T07:07:21;1.60;;;1.50;;
35324;SDS011;35135;47.510;19.036;2022-07-31T07:09:47;2.92;;;1.80;;
35324;SDS011;35135;47.510;19.036;2022-07-31T07:12:17;4.25;;;1.70;;
35324;SDS011;35135;47.510;19.036;2022-07-31T07:14:49;2.08;;;1.83;;
35324;SDS011;35135;47.510;19.036;2022-07-31T07:17:20;2.63;;;1.60;;
35324;SDS011;35135;47.510;19.036;2022-07-31T07:19:49;2.85;;;1.63;;
35324;SDS011;35135;47.510;19.036;2022-07-31T07:22:20;1.95;;;1.75;;
35324;SDS011;35135;47.510;19.036;2022-07-31T07:24:51;2.13;;;1.50;;
35324;SDS011;35135;47.510;19.036;2022-07-31T07:27:22;1.58;;;1.30;;
35324;SDS011;35135;47.510;19.036;2022-07-31T07:29:54;2.10;;;1.60;;
35324;SDS011;35135;47.510;19.036;2022-07-31T07:32:24;1.95;;;1.60;;
35324;SDS011;35135;47.510;19.036;2022-07-31T07:34:53;2.88;;;1.40;;
35324;SDS011;35135;47.510;19.036;2022-07-31T07:37:28;2.83;;;1.42;;
35324;SDS011;35135;47.510;19.036;2022-07-31T07:39:58;1.98;;;1.38;;
35324;SDS011;35135;47.510;19.036;2022-07-31T07:42:26;1.70;;;1.48;;
35324;SDS011;35135;47.510;19.036;2022-07-31T07:44:53;5.40;;;1.50;;
35324;SDS011;35135;47.510;19.036;2022-07-31T07:47:21;2.08;;;1.40;;
35324;SDS011;35135;47.510;19.036;2022-07-31T07:49:51;2.15;;;1.38;;
35324;SDS011;35135;47.510;19.036;2022-07-31T07:52:19;1.38;;;1.17;;
35324;SDS011;35135;47.510;19.036;2022-07-31T07:54:46;1.77;;;1.42;;
35324;SDS011;35135;47.510;19.036;2022-07-31T07:57:14;2.30;;;1.35;;
35324;SDS011;35135;47.510;19.036;2022-07-31T07:59:47;2.15;;;1.10;;
35324;SDS011;35135;47.510;19.036;2022-07-31T08:02:16;2.15;;;1.20;;
35324;SDS011;35135;47.510;19.036;2022-07-31T08:04:42;3.05;;;1.30;;
35324;SDS011;35135;47.510;19.036;2022-07-31T08:07:11;1.30;;;1.15;;
35324;SDS011;35135;47.510;19.036;2022-07-31T08:09:38;1.55;;;1.20;;
35324;SDS011;35135;47.510;19.036;2022-07-31T08:12:08;2.05;;;1.20;;
35324;SDS011;35135;47.510;19.036;2022-07-31T08:14:37;1.40;;;1.30;;
35324;SDS011;35135;47.510;19.036;2022-07-31T08:17:09;2.20;;;1.30;;
35324;SDS011;35135;47.510;19.036;2022-07-31T08:19:40;1.55;;;1.35;;
35324;SDS011;35135;47.510;19.036;2022-07-31T08:22:09;1.92;;;1.52;;
35324;SDS011;35135;47.510;19.036;2022-07-31T08:24:40;1.50;;;1.25;;
35324;SDS011;35135;47.510;19.036;2022-07-31T08:27:09;2.03;;;1.30;;
35324;SDS011;35135;47.510;19.036;2022-07-31T08:29:56;3.28;;;1.30;;
35324;SDS011;35135;47.510;19.036;2022-07-31T08:32:26;1.30;;;1.15;;
35324;SDS011;35135;47.510;19.036;2022-07-31T08:37:25;1.48;;;1.00;;
35324;SDS011;35135;47.510;19.036;2022-07-31T08:39:55;2.00;;;1.50;;
35324;SDS011;35135;47.510;19.036;2022-07-31T08:42:23;1.70;;;1.30;;
35324;SDS011;35135;47.510;19.036;2022-07-31T08:44:53;1.50;;;1.40;;
35324;SDS011;35135;47.510;19.036;2022-07-31T08:47:23;2.75;;;1.50;;
35324;SDS011;35135;47.510;19.036;2022-07-31T08:49:52;1.40;;;0.93;;
35324;SDS011;35135;47.510;19.036;2022-07-31T08:52:32;1.58;;;1.08;;
35324;SDS011;35135;47.510;19.036;2022-07-31T08:54:59;1.35;;;1.05;;
35324;SDS011;35135;47.510;19.036;2022-07-31T08:57:32;1.48;;;1.00;;
35324;SDS011;35135;47.510;19.036;2022-07-31T09:00:07;1.20;;;1.00;;
35324;SDS011;35135;47.510;19.036;2022-07-31T09:02:43;1.00;;;0.90;;
35324;SDS011;35135;47.510;19.036;2022-07-31T09:05:11;1.23;;;1.00;;
35324;SDS011;35135;47.510;19.036;2022-07-31T09:07:44;1.17;;;0.98;;
35324;SDS011;35135;47.510;19.036;2022-07-31T09:10:26;1.33;;;1.00;;
35324;SDS011;35135;47.510;19.036;2022-07-31T09:12:55;1.65;;;1.13;;
35324;SDS011;35135;47.510;19.036;2022-07-31T09:15:27;1.00;;;0.90;;
35324;SDS011;35135;47.510;19.036;2022-07-31T09:18:00;1.33;;;1.00;;
35324;SDS011;35135;47.510;19.036;2022-07-31T09:20:27;1.40;;;0.90;;
35324;SDS011;35135;47.510;19.036;2022-07-31T09:23:07;1.75;;;0.90;;
35324;SDS011;35135;47.510;19.036;2022-07-31T09:25:36;1.73;;;0.88;;
35324;SDS011;35135;47.510;19.036;2022-07-31T09:28:05;3.58;;;0.90;;
35324;SDS011;35135;47.510;19.036;2022-07-31T09:30:33;1.87;;;1.10;;
35324;SDS011;35135;47.510;19.036;2022-07-31T09:33:12;2.13;;;1.27;;
35324;SDS011;35135;47.510;19.036;2022-07-31T09:35:49;1.15;;;0.90;;
35324;SDS011;35135;47.510;19.036;2022-07-31T09:38:18;0.80;;;0.73;;
35324;SDS011;35135;47.510;19.036;2022-07-31T09:40:45;2.15;;;0.90;;
35324;SDS011;35135;47.510;19.036;2022-07-31T09:43:18;1.27;;;0.82;;
35324;SDS011;35135;47.510;19.036;2022-07-31T09:45:56;1.58;;;1.20;;
35324;SDS011;35135;47.510;19.036;2022-07-31T09:48:23;1.33;;;0.93;;
35324;SDS011;35135;47.510;19.036;2022-07-31T09:50:56;1.48;;;1.00;;
35324;SDS011;35135;47.510;19.036;2022-07-31T09:53:43;1.48;;;0.95;;
35324;SDS011;35135;47.510;19.036;2022-07-31T09:56:12;1.23;;;0.85;;
35324;SDS011;35135;47.510;19.036;2022-07-31T09:58:41;2.92;;;0.93;;
35324;SDS011;35135;47.510;19.036;2022-07-31T10:01:25;2.28;;;1.08;;
35324;SDS011;35135;47.510;19.036;2022-07-31T10:03:55;1.55;;;0.95;;
35324;SDS011;35135;47.510;19.036;2022-07-31T10:06:30;2.17;;;1.08;;
35324;SDS011;35135;47.510;19.036;2022-07-31T10:09:04;2.05;;;1.13;;
35324;SDS011;35135;47.510;19.036;2022-07-31T10:11:31;2.08;;;1.27;;
35324;SDS011;35135;47.510;19.036;2022-07-31T10:14:01;1.27;;;1.10;;
35324;SDS011;35135;47.510;19.036;2022-07-31T10:16:33;3.00;;;1.30;;
35324;SDS011;35135;47.510;19.036;2022-07-31T10:19:06;1.77;;;1.20;;
35324;SDS011;35135;47.510;19.036;2022-07-31T10:21:41;2.15;;;1.00;;
35324;SDS011;35135;47.510;19.036;2022-07-31T10:24:18;2.05;;;1.30;;
35324;SDS011;35135;47.510;19.036;2022-07-31T10:26:53;1.95;;;1.13;;
35324;SDS011;35135;47.510;19.036;2022-07-31T10:29:27;2.78;;;1.20;;
35324;SDS011;35135;47.510;19.036;2022-07-31T10:31:57;2.05;;;1.27;;
35324;SDS011;35135;47.510;19.036;2022-07-31T10:34:32;2.13;;;1.30;;
35324;SDS011;35135;47.510;19.036;2022-07-31T10:37:04;2.78;;;1.20;;
35324;SDS011;35135;47.510;19.036;2022-07-31T10:45:18;1.65;;;1.00;;
35324;SDS011;35135;47.510;19.036;2022-07-31T10:47:59;1.92;;;1.20;;
35324;SDS011;35135;47.510;19.036;2022-07-31T10:50:28;3.17;;;1.00;;
35324;SDS011;35135;47.510;19.036;2022-07-31T10:53:05;1.90;;;0.90;;
35324;SDS011;35135;47.510;19.036;2022-07-31T10:55:42;2.33;;;1.20;;
35324;SDS011;35135;47.510;19.036;2022-07-31T10:58:12;1.58;;;1.08;;
35324;SDS011;35135;47.510;19.036;2022-07-31T11:00:41;1.83;;;1.20;;
35324;SDS011;35135;47.510;19.036;2022-07-31T11:03:19;1.23;;;1.08;;
35324;SDS011;35135;47.510;19.036;2022-07-31T11:05:56;1.80;;;1.13;;
35324;SDS011;35135;47.510;19.036;2022-07-31T11:08:25;1.83;;;1.05;;
35324;SDS011;35135;47.510;19.036;2022-07-31T11:10:58;1.75;;;1.10;;
35324;SDS011;35135;47.510;19.036;2022-07-31T11:13:26;2.40;;;1.40;;
35324;SDS011;35135;47.510;19.036;2022-07-31T11:16:04;2.33;;;1.30;;
35324;SDS011;35135;47.510;19.036;2022-07-31T11:18:33;1.20;;;1.10;;
35324;SDS011;35135;47.510;19.036;2022-07-31T11:21:08;3.45;;;1.27;;
35324;SDS011;35135;47.510;19.036;2022-07-31T11:23:36;2.60;;;1.23;;
35324;SDS011;35135;47.510;19.036;2022-07-31T11:26:06;2.78;;;1.27;;
35324;SDS011;35135;47.510;19.036;2022-07-31T11:28:34;1.52;;;1.33;;
35324;SDS011;35135;47.510;19.036;2022-07-31T11:31:05;2.08;;;1.25;;
35324;SDS011;35135;47.510;19.036;2022-07-31T11:33:35;1.85;;;1.30;;
35324;SDS011;35135;47.510;19.036;2022-07-31T11:38:43;2.15;;;1.40;;
35324;SDS011;35135;47.510;19.036;2022-07-31T11:41:17;1.60;;;1.30;;
35324;SDS011;35135;47.510;19.036;2022-07-31T11:43:49;1.35;;;1.20;;
35324;SDS011;35135;47.510;19.036;2022-07-31T11:48:52;3.35;;;1.52;;
35324;SDS011;35135;47.510;19.036;2022-07-31T11:51:21;3.58;;;1.38;;
35324;SDS011;35135;47.510;19.036;2022-07-31T11:53:49;2.63;;;1.58;;
35324;SDS011;35135;47.510;19.036;2022-07-31T11:56:20;1.33;;;1.20;;
35324;SDS011;35135;47.510;19.036;2022-07-31T11:58:54;1.50;;;1.17;;
35324;SDS011;35135;47.510;19.036;2022-07-31T12:01:24;1.35;;;1.02;;
35324;SDS011;35135;47.510;19.036;2022-07-31T12:03:53;1.95;;;1.35;;
35324;SDS011;35135;47.510;19.036;2022-07-31T12:06:22;2.35;;;1.10;;
35324;SDS011;35135;47.510;19.036;2022-07-31T12:08:50;1.38;;;1.20;;
35324;SDS011;35135;47.510;19.036;2022-07-31T12:11:28;2.20;;;1.33;;
35324;SDS011;35135;47.510;19.036;2022-07-31T12:13:57;2.45;;;1.27;;
35324;SDS011;35135;47.510;19.036;2022-07-31T12:16:26;1.80;;;1.08;;
35324;SDS011;35135;47.510;19.036;2022-07-31T12:19:06;2.13;;;1.10;;
35324;SDS011;35135;47.510;19.036;2022-07-31T12:21:34;1.85;;;1.30;;
35324;SDS011;35135;47.510;19.036;2022-07-31T12:24:11;2.78;;;1.42;;
35324;SDS011;35135;47.510;19.036;2022-07-31T12:26:42;1.55;;;1.15;;
35324;SDS011;35135;47.510;19.036;2022-07-31T12:29:19;2.22;;;1.15;;
35324;SDS011;35135;47.510;19.036;2022-07-31T12:32:00;1.63;;;1.33;;
35324;SDS011;35135;47.510;19.036;2022-07-31T12:34:36;1.85;;;1.10;;
35324;SDS011;35135;47.510;19.036;2022-07-31T12:37:06;2.05;;;1.02;;
35324;SDS011;35135;47.510;19.036;2022-07-31T12:39:37;1.42;;;1.20;;
35324;SDS011;35135;47.510;19.036;2022-07-31T12:42:21;2.47;;;1.48;;
35324;SDS011;35135;47.510;19.036;2022-07-31T12:44:52;1.42;;;1.20;;
35324;SDS011;35135;47.510;19.036;2022-07-31T12:47:28;2.63;;;1.10;;
35324;SDS011;35135;47.510;19.036;2022-07-31T12:49:59;1.38;;;1.20;;
35324;SDS011;35135;47.510;19.036;2022-07-31T12:52:29;1.13;;;1.02;;
35324;SDS011;35135;47.510;19.036;2022-07-31T12:55:04;1.85;;;0.95;;
35324;SDS011;35135;47.510;19.036;2022-07-31T12:57:39;2.88;;;1.10;;
35324;SDS011;35135;47.510;19.036;2022-07-31T13:00:14;2.10;;;0.80;;
35324;SDS011;35135;47.510;19.036;2022-07-31T13:02:44;2.17;;;1.10;;
35324;SDS011;35135;47.510;19.036;2022-07-31T13:05:13;1.48;;;1.02;;
35324;SDS011;35135;47.510;19.036;2022-07-31T13:07:41;1.15;;;1.05;;
35324;SDS011;35135;47.510;19.036;2022-07-31T13:10:08;1.85;;;0.95;;
35324;SDS011;35135;47.510;19.036;2022-07-31T13:12:38;2.25;;;1.02;;
35324;SDS011;35135;47.510;19.036;2022-07-31T13:15:07;1.50;;;1.15;;
35324;SDS011;35135;47.510;19.036;2022-07-31T13:17:43;1.65;;;1.10;;
35324;SDS011;35135;47.510;19.036;2022-07-31T13:20:12;1.42;;;0.98;;
35324;SDS011;35135;47.510;19.036;2022-07-31T13:22:41;2.92;;;0.90;;
35324;SDS011;35135;47.510;19.036;2022-07-31T13:25:09;1.75;;;0.80;;
35324;SDS011;35135;47.510;19.036;2022-07-31T13:27:38;1.25;;;0.80;;
35324;SDS011;35135;47.510;19.036;2022-07-31T13:30:07;1.67;;;1.00;;
35324;SDS011;35135;47.510;19.036;2022-07-31T13:32:35;1.92;;;1.05;;
35324;SDS011;35135;47.510;19.036;2022-07-31T13:35:05;1.05;;;0.90;;
35324;SDS011;35135;47.510;19.036;2022-07-31T13:37:37;1.33;;;0.85;;
